Архив погоды в Ульяновске

Метеограмма Ульяновск
Среда, 21 Августа
Время местн. Темп Ветер Видим Явления Облачность нижн/средн/верх Атм. давл. Влжн Точка росы ВНГО R Сост. почвы Tg s
Напр Скр Прв ур.ст ур.м изм
21:00 +19.6° З 1 - 10 км - переменная облачность 756 767 +0.2 71% +14.3° более 2.5 км - - - -
18:00 +24.5° В 1 - 10 км - переменная облачность 756 767 -0.1 52% +14° более 2.5 км - - - -
15:00 +26.1° С-В 2 - 10 км - переменная облачность 756 767 -0.5 48% +14.2° 2 км - - - -
12:00 +25.6° С,С-В 2 - 10 км - переменная облачность 756 767 -0.3 49% +14.1° 1 км - - - -
09:00 +23° С 1 - 10 км - переменная облачность 756 768 +0.7 63% +15.6° 2 км - - - -
06:00 +15° С-З 1 - 10 км - ясно 756 767 +0.2 91% +13.5° более 2.5 км - Сухая (без трещин) - -
03:00 +15.8° С-З 1 - 10 км - ясно 755 767 +0.5 86% +13.4° более 2.5 км - - - -
00:00 +17.4° З,С-З 2 - 10 км - ясно 755 766 +0.3 81% +14.2° более 2.5 км - - - -
Вторник, 20 Августа
Время местн. Темп Ветер Видим Явления Облачность нижн/средн/верх Атм. давл. Влжн Точка росы ВНГО R Сост. почвы Tg s
Напр Скр Прв ур.ст ур.м изм
21:00 +19.9° штиль 0 - 10 км - ясно 755 766 +0.5 73% +15° более 2.5 км - - - -
18:00 +25.6° С-В 1 - 10 км - переменная облачность 754 765 -0.1 50% +14.4° более 2.5 км 0 - - -
15:00 +27.7° С,С-З 2 - 10 км - ясно 754 765 0 42% +13.7° более 2.5 км - - - -
12:00 +26° С,С-З 1 - 10 км - ясно 754 765 -0.2 51% +15.1° более 2.5 км - - - -
09:00 +23.5° С 1 - 10 км - ясно 755 766 +0.6 60% +15.2° более 2.5 км - - - -
06:00 +18.8° С,С-З 1 - 10 км - переменная облачность 754 765 +0.8 82% +15.7° - - Сухая (без трещин) - -
03:00 +18.4° З,С-З 3 - 10 км - переменная облачность 753 765 +0.3 86% +16° - - - - -
00:00 +21.5° С-З 3 - 10 км - облачно 753 764 +0.5 68% +15.4° - - - - -
Понедельник, 19 Августа
Время местн. Темп Ветер Видим Явления Облачность нижн/средн/верх Атм. давл. Влжн Точка росы ВНГО R Сост. почвы Tg s
Напр Скр Прв ур.ст ур.м изм
21:00 +21.4° Ю,Ю-В 1 - 10 км - облачно с прояснениями 752 764 +0.1 60% +13.3° - - - - -
18:00 +27.7° Ю 1 - 10 км - облачно с прояснениями 752 763 -0.3 41% +13.4° 2 км - - - -
15:00 +30.4° Ю,Ю-З 2 - 10 км - облачно с прояснениями 753 763 -0.2 32% +11.7° 2 км - - - -
12:00 +29.6° Ю 3 - 10 км - облачно с прояснениями 753 764 -0.2 36% +13° - - - - -
09:00 +22.4° В,Ю-В 1 - 10 км небо без изменений {ливневые осадки} преимущественно облачно 753 764 +0.3 63% +15.1° - - - - -
06:00 +19.3° Ю-В 1 - 10 км облака развиваются {ливневые осадки} преимущественно облачно 753 764 -0.5 71% +14° 1.5 км - Влажная (без луж) - -
03:00 +19.6° Ю,Ю-З 2 - 10 км ливневый дождь облачно с прояснениями 753 764 +0.9 61% +12° 1.5 км - - - -
00:00 +17.6° штиль 0 - 10 км - переменная облачность 752 763 -0.2 84% +14.8° 2 км - - - -
Воскресенье, 18 Августа
Время местн. Темп Ветер Видим Явления Облачность нижн/средн/верх Атм. давл. Влжн Точка росы ВНГО R Сост. почвы Tg s
Напр Скр Прв ур.ст ур.м изм
21:00 +19.4° В 1 - 10 км облака рассеиваются {ливневые осадки} облачно с прояснениями 752 763 +0.8 74% +14.7° 2 км - - - -
18:00 +22° В,Ю-В 1 - 10 км слабый ливневый дождь облачно 751 763 +0.5 68% +15.8° 1.5 км - - - -